SEU6125 LRIA-HEGN
Flight info
| Callsign | SEU6125 |
|---|---|
| Flight time | N/A |
| Altitude | 35000 |
| Route | ABOLO T74 GUXVA DCT MATEL/N0437F370 N616 RIXEN UG1 IST UT35 AYT UA16 TOMBI M855 RASDA A16 CVO L315 SOKOT SOKOT1A |
| Aircraft | B738/M-SDE2E3FGHIRWXY/LB1 |
Departure
| Time | 2026-04-20 21:31 |
|---|---|
| Airport | Iaşi International Airport (LRIA) |
Arrival
| Time | N/A |
|---|---|
| Airport | Hurghada International Airport (HEGN) |
| Time | Latitude | Longitude | Altitude | Speed | Heading |
|---|---|---|---|---|---|
| 2026-04-20 21:12 | 47.17644 | 27.61895 | 368 ft | 0 kts | 275° |
| 2026-04-20 21:23 | 47.17644 | 27.61929 | 368 ft | 4 kts | 252° |
| 2026-04-20 21:23 | 47.17658 | 27.61959 | 368 ft | 4 kts | 207° |
| 2026-04-20 21:23 | 47.17680 | 27.61964 | 368 ft | 2 kts | 155° |
| 2026-04-20 21:23 | 47.17682 | 27.61963 | 368 ft | 0 kts | 154° |
| 2026-04-20 21:27 | 47.17673 | 27.61969 | 368 ft | 7 kts | 154° |
| 2026-04-20 21:27 | 47.17580 | 27.62037 | 368 ft | 19 kts | 154° |
| 2026-04-20 21:27 | 47.17464 | 27.62129 | 368 ft | 19 kts | 149° |
| 2026-04-20 21:27 | 47.17354 | 27.62227 | 367 ft | 18 kts | 149° |
| 2026-04-20 21:28 | 47.17263 | 27.62347 | 357 ft | 19 kts | 94° |
| 2026-04-20 21:28 | 47.17299 | 27.62464 | 358 ft | 0 kts | 59° |
| 2026-04-20 21:28 | 47.17304 | 27.62477 | 353 ft | 8 kts | 59° |
| 2026-04-20 21:28 | 47.17357 | 27.62616 | 350 ft | 20 kts | 76° |
| 2026-04-20 21:29 | 47.17276 | 27.62760 | 336 ft | 19 kts | 147° |
| 2026-04-20 21:29 | 47.17188 | 27.62882 | 333 ft | 12 kts | 119° |
| 2026-04-20 21:29 | 47.17147 | 27.62933 | 329 ft | 3 kts | 189° |
| 2026-04-20 21:29 | 47.17134 | 27.62894 | 331 ft | 3 kts | 289° |
| 2026-04-20 21:30 | 47.17150 | 27.62872 | 330 ft | 0 kts | 328° |
| 2026-04-20 21:30 | 47.17154 | 27.62869 | 330 ft | 4 kts | 328° |
| 2026-04-20 21:31 | 47.17349 | 27.62695 | 347 ft | 72 kts | 329° |
| 2026-04-20 21:31 | 47.17989 | 27.62123 | 396 ft | 137 kts | 328° |
| 2026-04-20 21:31 | 47.18884 | 27.61302 | 819 ft | 165 kts | 330° |
| 2026-04-20 21:31 | 47.19890 | 27.60450 | 1849 ft | 157 kts | 338° |
| 2026-04-20 21:32 | 47.20889 | 27.59751 | 2665 ft | 169 kts | 338° |
| 2026-04-20 21:32 | 47.22054 | 27.58934 | 2985 ft | 200 kts | 338° |
| 2026-04-20 21:32 | 47.23385 | 27.57988 | 3226 ft | 223 kts | 337° |
| 2026-04-20 21:32 | 47.24605 | 27.56500 | 3717 ft | 238 kts | 307° |
| 2026-04-20 21:33 | 47.25163 | 27.54174 | 4403 ft | 248 kts | 278° |
| 2026-04-20 21:33 | 47.24817 | 27.51687 | 5180 ft | 255 kts | 247° |
| 2026-04-20 21:33 | 47.23736 | 27.49590 | 6065 ft | 260 kts | 219° |
| 2026-04-20 21:33 | 47.22062 | 27.48671 | 7108 ft | 263 kts | 183° |
| 2026-04-20 21:34 | 47.20284 | 27.48944 | 8034 ft | 266 kts | 173° |
| 2026-04-20 21:34 | 47.18435 | 27.49324 | 8980 ft | 270 kts | 174° |
| 2026-04-20 21:34 | 47.16554 | 27.49696 | 9913 ft | 275 kts | 179° |
| 2026-04-20 21:34 | 47.14699 | 27.49252 | 10770 ft | 275 kts | 206° |
| 2026-04-20 21:35 | 47.12994 | 27.47757 | 11101 ft | 299 kts | 219° |
| 2026-04-20 21:35 | 47.11265 | 27.45828 | 11437 ft | 323 kts | 220° |
| 2026-04-20 21:35 | 47.09463 | 27.43776 | 12263 ft | 331 kts | 220° |
| 2026-04-20 21:35 | 47.07631 | 27.41710 | 13300 ft | 333 kts | 220° |
| 2026-04-20 21:36 | 47.05780 | 27.39649 | 14307 ft | 335 kts | 219° |
| 2026-04-20 21:36 | 47.03912 | 27.37588 | 15293 ft | 337 kts | 219° |